WXM80 ListenWXM80 Stop

You find our weather info also at:

UK Metoffice

WeatherCloud

Weather Underground

Northeastern Weather Network

AWEKAS

Citizen Weather Observer Program (CWOP)

HAMweather, WeatherForYou, PWS Weather


Weather Underground History page Text

Daily Summary for April 2, 2016 Units:  English    Metric   Both
« Previous Day
Next Day »
Daily Weekly Monthly Yearly Custom
  High: Low: Average:
Temperature: 56.1 °F 47.5 °F 50.5 °F
Dew Point: 49.6 °F 44.7 °F 46.9 °F
Humidity: 96 % 75 % 88 %
Wind Speed: 9.0 mph 0.0 mph 2.3 mph
Wind Gust: 16.1 mph - -
Wind:- - SSW
Pressure: 29.65 in 29.28 in -
Precipitation: 0.27 in    
Historical Graphs
 
 
Tabular Data for April 2, 2016
Time Temperature Dew Point Pressure Wind Wind Speed Wind Gust Humidity Rainfall Rate (Hourly)
00:01 56.1 °F 49.0 °F 29.62 in North 3.1 mph 6.9 mph 77 % 0.00 in
00:06 56.0 °F 48.9 °F 29.63 in North 2.5 mph 5.8 mph 77 % 0.00 in
00:12 55.9 °F 48.8 °F 29.63 in North 2.0 mph 5.0 mph 77 % 0.00 in
00:17 55.9 °F 48.8 °F 29.64 in North 1.1 mph 2.3 mph 77 % 0.00 in
00:22 55.9 °F 48.8 °F 29.63 in NNW 2.1 mph 4.6 mph 77 % 0.00 in
00:27 55.9 °F 48.8 °F 29.63 in NW 1.5 mph 3.5 mph 77 % 0.00 in
00:32 55.9 °F 48.8 °F 29.62 in NNW 1.2 mph 3.0 mph 77 % 0.00 in
00:37 55.8 °F 48.3 °F 29.62 in North 1.2 mph 3.0 mph 76 % 0.00 in
00:42 55.8 °F 48.3 °F 29.62 in NNW 1.3 mph 3.5 mph 76 % 0.00 in
00:47 55.8 °F 48.0 °F 29.62 in NNE 2.0 mph 3.5 mph 75 % 0.00 in
00:52 55.7 °F 48.2 °F 29.62 in North 2.1 mph 3.5 mph 76 % 0.00 in
00:57 55.7 °F 48.2 °F 29.62 in NNW 2.5 mph 4.0 mph 76 % 0.00 in
01:03 55.7 °F 47.9 °F 29.62 in North 3.2 mph 4.0 mph 75 % 0.00 in
01:08 55.5 °F 48.1 °F 29.63 in North 1.4 mph 3.5 mph 76 % 0.00 in
01:13 55.5 °F 48.1 °F 29.63 in NW 1.2 mph 3.5 mph 76 % 0.00 in
01:18 55.3 °F 48.2 °F 29.64 in NW 0.9 mph 3.5 mph 77 % 0.00 in
01:23 55.2 °F 47.8 °F 29.63 in NNW 1.8 mph 4.0 mph 76 % 0.00 in
01:28 54.9 °F 47.5 °F 29.60 in North 4.9 mph 6.9 mph 76 % 0.00 in
01:33 54.6 °F 47.2 °F 29.63 in North 1.4 mph 3.5 mph 76 % 0.00 in
01:38 54.5 °F 47.1 °F 29.63 in North 1.8 mph 3.5 mph 76 % 0.00 in
01:43 54.3 °F 47.2 °F 29.62 in North 0.1 mph 2.3 mph 77 % 0.00 in
01:48 54.2 °F 47.1 °F 29.64 in Calm     77 % 0.00 in
01:54 54.1 °F 47.4 °F 29.64 in Calm   1.2 mph 78 % 0.00 in
01:59 54.0 °F 47.3 °F 29.64 in North 1.0 mph 2.3 mph 78 % 0.00 in
02:04 53.9 °F 47.2 °F 29.63 in North 0.7 mph 3.5 mph 78 % 0.00 in
02:09 53.7 °F 47.0 °F 29.64 in North 0.1 mph 1.2 mph 78 % 0.00 in
02:14 53.6 °F 46.9 °F 29.63 in Calm     78 % 0.00 in
02:19 53.6 °F 47.2 °F 29.64 in Calm     79 % 0.00 in
02:24 53.5 °F 47.1 °F 29.64 in Calm     79 % 0.00 in
02:29 53.5 °F 47.5 °F 29.64 in Calm     80 % 0.00 in
02:34 53.4 °F 47.4 °F 29.63 in Calm     80 % 0.00 in
02:39 53.4 °F 47.4 °F 29.63 in Calm     80 % 0.00 in
02:45 53.3 °F 47.6 °F 29.63 in Calm     81 % 0.00 in
02:50 53.3 °F 47.6 °F 29.64 in Calm     81 % 0.00 in
02:55 53.3 °F 47.6 °F 29.63 in Calm     81 % 0.00 in
03:00 53.2 °F 47.8 °F 29.63 in Calm     82 % 0.00 in
03:05 53.2 °F 47.8 °F 29.63 in Calm     82 % 0.00 in
03:10 53.1 °F 48.1 °F 29.63 in Calm     83 % 0.00 in
03:15 53.1 °F 48.4 °F 29.63 in Calm     84 % 0.00 in
03:20 53.0 °F 48.3 °F 29.64 in Calm     84 % 0.00 in
03:25 53.0 °F 48.6 °F 29.64 in Calm     85 % 0.00 in
03:30 52.8 °F 48.7 °F 29.65 in Calm     86 % 0.00 in
03:36 52.8 °F 48.7 °F 29.64 in Calm     86 % 0.00 in
03:41 52.6 °F 48.5 °F 29.64 in Calm   1.2 mph 86 % 0.00 in
03:46 52.6 °F 48.8 °F 29.64 in Calm     87 % 0.00 in
03:51 52.5 °F 48.7 °F 29.64 in Calm     87 % 0.00 in
03:56 52.4 °F 48.6 °F 29.64 in Calm   1.2 mph 87 % 0.00 in
04:01 52.3 °F 48.2 °F 29.63 in North 0.2 mph 1.2 mph 86 % 0.00 in
04:06 52.1 °F 47.7 °F 29.63 in North 0.2 mph 2.3 mph 85 % 0.00 in
04:11 51.9 °F 47.5 °F 29.62 in Calm     85 % 0.00 in
04:16 51.8 °F 47.7 °F 29.63 in Calm   1.2 mph 86 % 0.00 in
04:21 51.7 °F 47.6 °F 29.63 in Calm     86 % 0.00 in
04:27 51.6 °F 47.5 °F 29.63 in Calm   1.2 mph 86 % 0.00 in
04:32 51.5 °F 47.5 °F 29.64 in North 1.1 mph 2.3 mph 86 % 0.00 in
04:37 51.4 °F 47.4 °F 29.64 in North 0.3 mph 1.2 mph 86 % 0.00 in
04:42 51.3 °F 47.3 °F 29.64 in North 1.4 mph 3.5 mph 86 % 0.00 in
04:47 51.2 °F 47.5 °F 29.63 in NNE 3.1 mph 4.0 mph 87 % 0.00 in
04:52 50.9 °F 46.9 °F 29.63 in NNE 1.9 mph 3.5 mph 86 % 0.00 in
04:57 50.7 °F 46.7 °F 29.63 in NNE 1.7 mph 3.5 mph 86 % 0.00 in
05:02 50.5 °F 46.5 °F 29.63 in NNE 2.0 mph 3.5 mph 86 % 0.00 in
05:07 50.3 °F 46.3 °F 29.61 in NE 3.3 mph 6.0 mph 86 % 0.01 in
05:12 50.1 °F 46.1 °F 29.60 in NNE 3.2 mph 4.6 mph 86 % 0.01 in
05:18 49.9 °F 45.9 °F 29.61 in NNE 1.9 mph 3.5 mph 86 % 0.01 in
05:23 49.8 °F 45.8 °F 29.61 in NNE 0.8 mph 2.3 mph 86 % 0.01 in
05:28 49.6 °F 45.6 °F 29.61 in NE 1.3 mph 3.5 mph 86 % 0.01 in
05:33 49.5 °F 45.5 °F 29.61 in NE 1.1 mph 2.3 mph 86 % 0.01 in
05:38 49.5 °F 45.8 °F 29.61 in NE 0.7 mph 2.0 mph 87 % 0.01 in
05:43 49.4 °F 45.4 °F 29.60 in NE 2.4 mph 3.5 mph 86 % 0.01 in
05:48 49.3 °F 45.3 °F 29.60 in NE 1.5 mph 3.0 mph 86 % 0.01 in
05:53 49.3 °F 45.3 °F 29.59 in NE 2.2 mph 3.5 mph 86 % 0.01 in
05:58 49.3 °F 45.3 °F 29.59 in NE 0.2 mph 2.3 mph 86 % 0.01 in
06:03 49.3 °F 45.3 °F 29.59 in Calm   1.2 mph 86 % 0.01 in
06:09 49.3 °F 45.6 °F 29.59 in NE 0.1 mph 1.2 mph 87 % 0.00 in
06:14 49.3 °F 45.6 °F 29.59 in NE 1.7 mph 2.3 mph 87 % 0.00 in
06:19 49.3 °F 45.3 °F 29.59 in NE 1.7 mph 3.5 mph 86 % 0.00 in
06:24 49.3 °F 45.0 °F 29.59 in NE 1.1 mph 2.3 mph 85 % 0.00 in
06:29 49.3 °F 45.3 °F 29.58 in NE 1.5 mph 3.5 mph 86 % 0.00 in
06:34 49.3 °F 45.0 °F 29.58 in NE 1.1 mph 2.3 mph 85 % 0.00 in
06:39 49.3 °F 44.7 °F 29.58 in NE 1.0 mph 2.3 mph 84 % 0.00 in
06:54 49.5 °F 44.9 °F 29.58 in NE 0.1 mph 1.0 mph 84 % 0.00 in
07:05 49.5 °F 44.9 °F 29.59 in NE 0.3 mph 2.3 mph 84 % 0.00 in
07:10 49.5 °F 44.9 °F 29.58 in NE 0.6 mph 2.3 mph 84 % 0.00 in
07:15 49.5 °F 44.9 °F 29.58 in NE 0.8 mph 2.3 mph 84 % 0.00 in
07:20 49.5 °F 44.9 °F 29.58 in NE 1.3 mph 2.3 mph 84 % 0.00 in
07:25 49.6 °F 45.3 °F 29.58 in NE 1.5 mph 3.0 mph 85 % 0.00 in
07:30 49.6 °F 45.6 °F 29.57 in NE 0.6 mph 2.3 mph 86 % 0.00 in
07:40 49.5 °F 45.5 °F 29.57 in NE 1.6 mph 2.0 mph 86 % 0.00 in
07:45 49.4 °F 45.1 °F 29.57 in Calm   1.2 mph 85 % 0.00 in
07:51 49.4 °F 45.1 °F 29.58 in Calm   1.2 mph 85 % 0.00 in
07:56 49.3 °F 45.3 °F 29.58 in Calm     86 % 0.00 in
08:01 49.3 °F 45.3 °F 29.58 in NE 0.1 mph 1.2 mph 86 % 0.00 in
08:06 49.2 °F 45.5 °F 29.58 in Calm     87 % 0.00 in
08:11 49.1 °F 45.4 °F 29.58 in Calm     87 % 0.00 in
08:16 49.1 °F 45.4 °F 29.58 in Calm     87 % 0.00 in
08:26 49.0 °F 45.6 °F 29.59 in Calm     88 % 0.00 in
08:31 49.1 °F 45.7 °F 29.59 in Calm     88 % 0.00 in
08:36 49.1 °F 45.7 °F 29.60 in Calm     88 % 0.00 in
08:42 49.1 °F 45.7 °F 29.60 in Calm     88 % 0.01 in
08:47 49.1 °F 46.0 °F 29.62 in NNE 1.0 mph 2.3 mph 89 % 0.01 in
08:52 49.1 °F 46.3 °F 29.62 in NNE 0.1 mph 1.2 mph 90 % 0.01 in
08:57 49.1 °F 46.6 °F 29.62 in Calm     91 % 0.01 in
09:02 49.1 °F 46.6 °F 29.60 in Calm   1.2 mph 91 % 0.02 in
09:07 49.2 °F 46.7 °F 29.60 in Calm     91 % 0.03 in
09:12 49.1 °F 46.6 °F 29.60 in NNE 0.1 mph   91 % 0.03 in
09:17 49.0 °F 46.8 °F 29.59 in Calm   1.2 mph 92 % 0.04 in
09:22 49.0 °F 46.8 °F 29.58 in Calm     92 % 0.04 in
09:27 49.0 °F 46.8 °F 29.58 in Calm     92 % 0.05 in
09:33 49.1 °F 46.9 °F 29.59 in Calm     92 % 0.05 in
09:38 49.1 °F 46.9 °F 29.59 in Calm     92 % 0.05 in
09:43 49.1 °F 46.9 °F 29.58 in Calm     92 % 0.04 in
09:48 49.1 °F 46.9 °F 29.58 in Calm     92 % 0.05 in
09:53 49.1 °F 46.9 °F 29.58 in Calm     92 % 0.05 in
09:58 49.2 °F 47.0 °F 29.58 in Calm     92 % 0.05 in
10:03 49.2 °F 47.3 °F 29.59 in SW 1.9 mph 4.0 mph 93 % 0.06 in
10:08 49.2 °F 47.3 °F 29.59 in SW 0.3 mph 1.2 mph 93 % 0.06 in
10:13 49.2 °F 47.0 °F 29.59 in Calm     92 % 0.06 in
10:19 49.1 °F 46.9 °F 29.60 in Calm   1.2 mph 92 % 0.06 in
10:24 49.1 °F 46.9 °F 29.60 in Calm     92 % 0.07 in
10:29 49.1 °F 46.9 °F 29.59 in SW 0.2 mph 1.2 mph 92 % 0.06 in
10:34 49.0 °F 46.8 °F 29.58 in North 0.3 mph 1.2 mph 92 % 0.07 in
10:39 48.9 °F 46.7 °F 29.59 in Calm   1.2 mph 92 % 0.08 in
10:44 48.8 °F 46.9 °F 29.59 in WNW 2.1 mph 5.0 mph 93 % 0.09 in
10:49 48.7 °F 46.5 °F 29.60 in NW 0.7 mph 2.3 mph 92 % 0.09 in
10:54 48.5 °F 46.3 °F 29.59 in NNW 2.1 mph 2.3 mph 92 % 0.08 in
10:59 48.3 °F 46.1 °F 29.60 in NNW 0.7 mph 3.5 mph 92 % 0.09 in
11:04 48.1 °F 46.2 °F 29.59 in NNW 0.4 mph 3.5 mph 93 % 0.09 in
11:10 48.1 °F 46.2 °F 29.59 in Calm     93 % 0.09 in
11:15 48.0 °F 46.1 °F 29.59 in Calm     93 % 0.10 in
11:20 47.9 °F 46.0 °F 29.58 in Calm     93 % 0.10 in
11:25 47.9 °F 46.3 °F 29.57 in Calm     94 % 0.10 in
11:30 47.8 °F 46.2 °F 29.57 in Calm     94 % 0.10 in
11:35 47.8 °F 46.2 °F 29.58 in Calm     94 % 0.11 in
11:40 47.9 °F 46.3 °F 29.57 in Calm     94 % 0.10 in
11:45 48.0 °F 46.6 °F 29.56 in Calm     95 % 0.09 in
11:50 48.1 °F 46.7 °F 29.54 in NNW 0.2 mph 1.2 mph 95 % 0.09 in
11:55 48.2 °F 46.8 °F 29.54 in NNW 0.1 mph 1.2 mph 95 % 0.08 in
12:01 48.4 °F 47.0 °F 29.53 in Calm   1.2 mph 95 % 0.08 in
12:06 48.5 °F 47.4 °F 29.53 in NNW 0.4 mph 1.2 mph 96 % 0.07 in
12:11 48.6 °F 47.5 °F 29.53 in NNW 0.7 mph 2.3 mph 96 % 0.07 in
12:16 48.8 °F 47.4 °F 29.51 in NNW 0.1 mph 1.2 mph 95 % 0.06 in
12:21 48.9 °F 47.8 °F 29.52 in NNW 0.3 mph 1.2 mph 96 % 0.05 in
12:26 49.1 °F 48.0 °F 29.52 in Calm     96 % 0.04 in
12:31 49.2 °F 48.1 °F 29.52 in Calm   1.2 mph 96 % 0.03 in
12:36 49.4 °F 48.3 °F 29.51 in NNW 0.2 mph 2.3 mph 96 % 0.02 in
12:41 49.7 °F 48.6 °F 29.51 in NNW 1.5 mph 3.5 mph 96 % 0.02 in
12:46 50.0 °F 48.9 °F 29.51 in NNW 1.8 mph 3.5 mph 96 % 0.02 in
12:52 50.2 °F 49.1 °F 29.51 in NNW 0.2 mph 1.2 mph 96 % 0.01 in
12:57 50.2 °F 49.1 °F 29.50 in Calm     96 % 0.01 in
13:02 50.2 °F 49.1 °F 29.49 in Calm     96 % 0.02 in
13:07 50.2 °F 48.8 °F 29.49 in NNW 0.2 mph 1.2 mph 95 % 0.01 in
13:12 50.3 °F 48.9 °F 29.49 in Calm     95 % 0.01 in
13:17 50.4 °F 49.0 °F 29.47 in Calm     95 % 0.01 in
13:22 50.5 °F 49.1 °F 29.47 in NNW 0.2 mph 1.2 mph 95 % 0.01 in
13:27 50.7 °F 49.3 °F 29.47 in NNW 0.2 mph 1.2 mph 95 % 0.01 in
13:32 50.9 °F 49.5 °F 29.47 in NNW 0.4 mph 3.5 mph 95 % 0.01 in
13:37 50.9 °F 49.2 °F 29.47 in Calm     94 % 0.01 in
13:43 51.0 °F 49.3 °F 29.45 in Calm   2.3 mph 94 % 0.01 in
13:48 51.0 °F 49.0 °F 29.44 in NNW 0.8 mph 3.5 mph 93 % 0.01 in
13:53 51.0 °F 48.8 °F 29.44 in South 2.0 mph 3.5 mph 92 % 0.01 in
13:58 51.1 °F 48.9 °F 29.44 in South 1.3 mph 3.5 mph 92 % 0.01 in
14:03 51.2 °F 48.7 °F 29.43 in SW 0.1 mph 1.2 mph 91 % 0.00 in
14:08 51.3 °F 48.8 °F 29.43 in Calm   1.0 mph 91 % 0.00 in
14:13 51.4 °F 48.9 °F 29.44 in WSW 1.9 mph 5.0 mph 91 % 0.00 in
14:18 51.4 °F 48.6 °F 29.44 in WSW 1.0 mph 3.5 mph 90 % 0.00 in
14:23 51.6 °F 49.1 °F 29.44 in SSW 1.1 mph 3.0 mph 91 % 0.00 in
14:28 51.8 °F 49.5 °F 29.43 in SSE 1.8 mph 3.5 mph 92 % 0.00 in
14:34 51.9 °F 49.4 °F 29.42 in SSW 2.1 mph 4.6 mph 91 % 0.00 in
14:44 52.1 °F 49.6 °F 29.42 in South 5.2 mph 8.1 mph 91 % 0.00 in
14:49 51.9 °F 48.8 °F 29.41 in South 2.6 mph 6.9 mph 89 % 0.00 in
14:54 51.7 °F 48.6 °F 29.42 in South 2.4 mph 5.8 mph 89 % 0.00 in
14:59 51.6 °F 48.5 °F 29.42 in South 2.7 mph 6.9 mph 89 % 0.00 in
15:04 51.6 °F 48.8 °F 29.42 in SSW 3.4 mph 4.6 mph 90 % 0.00 in
15:09 51.4 °F 48.3 °F 29.40 in SSE 0.2 mph 3.5 mph 89 % 0.00 in
15:14 51.4 °F 48.6 °F 29.41 in South 3.7 mph 9.0 mph 90 % 0.00 in
15:19 51.2 °F 48.1 °F 29.39 in South 4.4 mph 6.0 mph 89 % 0.00 in
15:25 51.1 °F 48.0 °F 29.40 in SSW 2.9 mph 7.0 mph 89 % 0.00 in
15:30 51.2 °F 48.1 °F 29.40 in South 2.9 mph 6.9 mph 89 % 0.00 in
15:35 51.2 °F 48.1 °F 29.39 in South 4.7 mph 7.0 mph 89 % 0.00 in
15:40 51.2 °F 48.1 °F 29.41 in South 3.5 mph 5.8 mph 89 % 0.00 in
15:45 51.1 °F 48.0 °F 29.41 in South 4.7 mph 8.0 mph 89 % 0.00 in
15:50 51.2 °F 48.1 °F 29.39 in SSW 3.8 mph 5.8 mph 89 % 0.00 in
15:55 51.2 °F 48.1 °F 29.37 in SSE 1.5 mph 3.5 mph 89 % 0.00 in
16:00 51.3 °F 47.6 °F 29.35 in South 3.3 mph 6.9 mph 87 % 0.00 in
16:05 51.5 °F 47.5 °F 29.35 in South 3.5 mph 8.1 mph 86 % 0.00 in
16:10 51.5 °F 47.5 °F 29.34 in SSW 2.2 mph 6.9 mph 86 % 0.00 in
16:16 51.4 °F 47.0 °F 29.34 in South 4.3 mph 6.9 mph 85 % 0.00 in
16:21 51.7 °F 48.0 °F 29.34 in South 5.3 mph 10.4 mph 87 % 0.00 in
16:26 52.1 °F 47.7 °F 29.33 in South 3.9 mph 5.8 mph 85 % 0.00 in
16:31 52.4 °F 48.0 °F 29.33 in South 2.5 mph 4.6 mph 85 % 0.00 in
16:36 52.6 °F 47.9 °F 29.33 in SW 0.8 mph 3.5 mph 84 % 0.00 in
16:41 52.8 °F 48.1 °F 29.33 in South 3.4 mph 6.9 mph 84 % 0.00 in
16:46 52.9 °F 47.6 °F 29.34 in South 2.3 mph 3.5 mph 82 % 0.00 in
16:51 52.9 °F 47.2 °F 29.33 in South 1.0 mph 3.5 mph 81 % 0.00 in
16:56 53.0 °F 48.0 °F 29.33 in SSW 1.8 mph 3.5 mph 83 % 0.00 in
17:01 53.2 °F 47.8 °F 29.33 in South 2.5 mph 4.6 mph 82 % 0.00 in
17:07 53.3 °F 47.6 °F 29.33 in SSW 2.8 mph 4.0 mph 81 % 0.00 in
17:12 53.3 °F 47.3 °F 29.34 in South 3.6 mph 6.9 mph 80 % 0.00 in
17:17 53.3 °F 47.3 °F 29.35 in South 3.4 mph 6.9 mph 80 % 0.00 in
17:22 53.4 °F 47.7 °F 29.36 in SSE 3.5 mph 8.1 mph 81 % 0.00 in
17:27 53.3 °F 47.3 °F 29.36 in SSW 4.2 mph 8.0 mph 80 % 0.00 in
17:32 52.9 °F 47.2 °F 29.36 in SSW 5.6 mph 10.4 mph 81 % 0.00 in
17:37 52.5 °F 46.8 °F 29.36 in SW 3.4 mph 9.2 mph 81 % 0.00 in
17:42 52.2 °F 46.9 °F 29.36 in SSE 3.1 mph 9.2 mph 82 % 0.00 in
17:47 51.9 °F 46.6 °F 29.36 in South 8.5 mph 11.5 mph 82 % 0.00 in
17:52 51.6 °F 46.6 °F 29.35 in South 5.4 mph 7.0 mph 83 % 0.00 in
17:58 51.2 °F 46.2 °F 29.35 in SSW 4.1 mph 11.5 mph 83 % 0.00 in
18:03 51.0 °F 46.0 °F 29.35 in SSW 5.1 mph 10.4 mph 83 % 0.00 in
18:08 50.6 °F 45.9 °F 29.35 in South 6.3 mph 11.5 mph 84 % 0.00 in
18:13 50.3 °F 46.0 °F 29.35 in South 6.5 mph 9.2 mph 85 % 0.00 in
18:18 50.2 °F 45.9 °F 29.35 in SSW 4.7 mph 8.1 mph 85 % 0.00 in
18:23 50.1 °F 45.8 °F 29.35 in SSW 4.9 mph 8.0 mph 85 % 0.00 in
18:28 49.9 °F 45.9 °F 29.35 in South 6.2 mph 10.4 mph 86 % 0.00 in
18:33 49.8 °F 46.1 °F 29.34 in South 3.2 mph 4.6 mph 87 % 0.00 in
18:38 49.7 °F 46.0 °F 29.34 in SSW 6.2 mph 7.0 mph 87 % 0.00 in
18:43 49.7 °F 46.0 °F 29.34 in SSW 5.9 mph 10.4 mph 87 % 0.00 in
18:49 49.5 °F 45.8 °F 29.33 in South 4.6 mph 9.2 mph 87 % 0.00 in
18:54 49.3 °F 45.9 °F 29.34 in SSW 4.0 mph 8.1 mph 88 % 0.00 in
18:59 49.2 °F 45.8 °F 29.34 in SSW 5.1 mph 10.4 mph 88 % 0.00 in
19:04 49.0 °F 45.6 °F 29.34 in South 3.8 mph 5.0 mph 88 % 0.00 in
19:09 48.9 °F 45.5 °F 29.34 in South 3.3 mph 9.2 mph 88 % 0.00 in
19:14 48.8 °F 45.4 °F 29.34 in South 5.0 mph 9.0 mph 88 % 0.00 in
19:19 48.6 °F 45.2 °F 29.34 in South 5.5 mph 11.5 mph 88 % 0.00 in
19:24 48.5 °F 45.4 °F 29.34 in South 4.5 mph 7.0 mph 89 % 0.00 in
19:29 48.3 °F 45.2 °F 29.33 in South 4.9 mph 8.0 mph 89 % 0.00 in
19:34 48.2 °F 45.1 °F 29.33 in SSW 4.4 mph 11.5 mph 89 % 0.00 in
19:40 48.1 °F 45.3 °F 29.33 in South 4.7 mph 10.4 mph 90 % 0.00 in
19:45 48.1 °F 45.3 °F 29.33 in SSW 4.2 mph 8.1 mph 90 % 0.00 in
19:50 48.0 °F 45.2 °F 29.33 in South 4.5 mph 11.5 mph 90 % 0.00 in
19:55 48.0 °F 45.5 °F 29.33 in SSW 6.4 mph 11.5 mph 91 % 0.00 in
20:05 48.0 °F 45.5 °F 29.33 in South 5.9 mph 10.4 mph 91 % 0.00 in
20:10 48.0 °F 45.5 °F 29.33 in SSW 7.1 mph 13.8 mph 91 % 0.00 in
20:15 48.0 °F 45.5 °F 29.33 in SW 5.8 mph 8.1 mph 91 % 0.00 in
20:20 48.0 °F 45.5 °F 29.33 in SW 7.8 mph 10.4 mph 91 % 0.00 in
20:31 47.9 °F 45.7 °F 29.33 in SSW 7.1 mph 11.5 mph 92 % 0.00 in
20:36 47.8 °F 45.6 °F 29.33 in SSW 5.5 mph 16.1 mph 92 % 0.00 in
20:41 47.8 °F 45.6 °F 29.33 in SW 7.7 mph 13.0 mph 92 % 0.00 in
20:46 47.7 °F 45.5 °F 29.33 in SSW 5.4 mph 9.2 mph 92 % 0.00 in
20:51 47.7 °F 45.5 °F 29.33 in SSW 6.0 mph 12.0 mph 92 % 0.00 in
20:56 47.6 °F 45.4 °F 29.34 in SSE 9.0 mph 11.5 mph 92 % 0.00 in
21:01 47.6 °F 45.4 °F 29.34 in South 7.4 mph 11.5 mph 92 % 0.00 in
21:06 47.7 °F 45.8 °F 29.34 in South 4.4 mph 6.9 mph 93 % 0.00 in
21:11 47.7 °F 45.8 °F 29.34 in South 5.5 mph 8.1 mph 93 % 0.00 in
21:16 47.6 °F 45.7 °F 29.34 in SSW 6.0 mph 10.4 mph 93 % 0.00 in
21:22 47.7 °F 45.8 °F 29.34 in SSW 6.8 mph 12.7 mph 93 % 0.00 in
21:27 47.7 °F 45.8 °F 29.34 in South 6.1 mph 9.2 mph 93 % 0.00 in
21:32 47.8 °F 45.9 °F 29.34 in South 8.1 mph 11.5 mph 93 % 0.00 in
21:37 47.8 °F 45.9 °F 29.34 in SSW 6.8 mph 13.8 mph 93 % 0.00 in
21:42 47.8 °F 45.9 °F 29.34 in SW 8.3 mph 13.0 mph 93 % 0.00 in
21:47 47.8 °F 45.9 °F 29.34 in South 5.1 mph 8.1 mph 93 % 0.00 in
21:52 47.9 °F 46.0 °F 29.34 in South 6.7 mph 12.0 mph 93 % 0.00 in
21:57 47.9 °F 46.0 °F 29.34 in SSW 4.7 mph 8.1 mph 93 % 0.00 in
22:02 47.8 °F 45.9 °F 29.34 in South 5.4 mph 11.5 mph 93 % 0.00 in
22:07 47.8 °F 45.6 °F 29.34 in SSE 5.5 mph 9.2 mph 92 % 0.00 in
22:13 47.7 °F 45.5 °F 29.34 in SW 4.3 mph 7.0 mph 92 % 0.00 in
22:23 47.6 °F 45.7 °F 29.33 in SSE 7.2 mph 11.5 mph 93 % 0.00 in
22:28 47.6 °F 45.7 °F 29.33 in South 7.3 mph 9.2 mph 93 % 0.00 in
22:33 47.5 °F 45.6 °F 29.33 in SSW 3.8 mph 6.9 mph 93 % 0.00 in
22:38 47.5 °F 45.6 °F 29.33 in SSW 5.3 mph 9.2 mph 93 % 0.00 in
22:48 47.6 °F 45.7 °F 29.33 in South 8.5 mph 10.4 mph 93 % 0.00 in
22:53 47.7 °F 46.1 °F 29.32 in SW 3.7 mph 8.1 mph 94 % 0.00 in
22:58 47.8 °F 45.9 °F 29.31 in South 3.9 mph 7.0 mph 93 % 0.00 in
23:04 47.8 °F 45.9 °F 29.30 in South 5.0 mph 10.4 mph 93 % 0.00 in
23:09 47.7 °F 45.8 °F 29.31 in SSW 3.9 mph 13.0 mph 93 % 0.00 in
23:14 47.7 °F 45.8 °F 29.31 in SSE 6.6 mph 11.5 mph 93 % 0.00 in
23:24 47.7 °F 45.8 °F 29.29 in SW 7.7 mph 13.8 mph 93 % 0.00 in
23:34 47.7 °F 45.8 °F 29.28 in South 5.2 mph 11.5 mph 93 % 0.00 in
23:39 47.7 °F 45.8 °F 29.28 in South 5.9 mph 8.1 mph 93 % 0.00 in
23:44 47.7 °F 45.8 °F 29.28 in SW 6.7 mph 10.0 mph 93 % 0.00 in
23:50 47.8 °F 45.9 °F 29.29 in South 7.6 mph 15.0 mph 93 % 0.00 in
23:55 47.9 °F 46.0 °F 29.29 in South 3.3 mph 10.4 mph 93 % 0.00 in
Crab Meadow Weather
Compliments of Weather Underground - 3 mb

Script developed by  Jim McMurry - jmcmurry@mwt.net Adapted for the template by  Wim van der Kuil - Leuven-Template.eu

Astronomy: One day on Jupiter is only 9 hours and 55 minutes.